• Join FlightAware (Why Join?)
  • Login
  • US Flag 
05:52AM EDT


 

Airport Tracker/Info


-or-


 

Live Flight TrackerFlight Track Log ✈ DAL6091 ✈ 04-05-2013 ✈ KRIC - KJFK

Flight Track Log - Related Links

Times and Time Zones

All times are in EDT time to prevent confusion due to time zone crossing. See the DAL6091 flight status page for this flight to view local times or setup timezone preferences in your user account.

Time Position Orientation Groundspeed Altitude Reporting Facility
EDT Latitude Longitude Course Direction KTS MPH feet Rate Location/Type
01:13PM 37.5500 -77.3167 38° Northeast 171 197 2,000  Level Potomac TRACON
01:14PM 37.6167 -77.3167 360° North 215 247 3,900 1,920 Climbing Potomac TRACON
01:15PM 37.7169 -77.0831 38° Northeast  Level FlightAware Approximate
01:15PM 37.6603 -77.3100 North 224 258 5,500  Level Washington Center
01:16PM 37.7916 -77.0084 38° Northeast  Level FlightAware Approximate
01:16PM 37.7072 -77.2533 44° Northeast 223 257 7,400  Level Washington Center
01:17PM 37.8664 -76.9337 38° Northeast  Level FlightAware Approximate
01:17PM 37.7456 -77.1939 51° Northeast 229 264 9,100  Level Washington Center
01:18PM 37.9411 -76.8589 38° Northeast  Level FlightAware Approximate
01:18PM 37.7964 -77.1186 49° Northeast 254 292 11,000  Level Washington Center
01:19PM 37.8558 -77.0436 45° Northeast 279 321 12,300 1,260 Climbing Washington Center
01:20PM 37.9192 -76.9631 45° Northeast 298 343 13,600 1,320 Climbing Washington Center
01:21PM 37.9994 -76.8697 42° Northeast 331 381 15,000 1,260 Climbing Washington Center
01:22PM 38.0692 -76.7839 44° Northeast 344 396 16,200 960 Climbing Washington Center
01:23PM 38.1411 -76.6981 43° Northeast 344 396 17,000 360 Climbing Washington Center
01:24PM 38.2147 -76.6067 44° Northeast 356 410 17,000  Level Washington Center
01:25PM 38.2906 -76.5175 43° Northeast 362 417 17,000  Level Washington Center
01:26PM 38.3494 -76.4469 43° Northeast 362 417 17,000  Level Washington Center
01:27PM 38.4397 -76.3392 43° Northeast 362 417 17,000  Level Washington Center
01:28PM 38.4986 -76.2628 45° Northeast 362 417 17,000  Level Washington Center
01:29PM 38.5825 -76.1575 44° Northeast 373 429 17,000 -60 Level Washington Center
01:30PM 38.6581 -76.0650 44° Northeast 373 429 16,900 -60 Descending Washington Center
01:31PM 38.7272 -75.9694 47° Northeast 368 423 16,900  Level Washington Center
01:32PM 38.7839 -75.8581 57° Northeast 368 423 16,900  Level Washington Center
01:33PM 38.8422 -75.7489 56° Northeast 368 423 16,900  Level Washington Center
01:34PM 38.9008 -75.6369 56° Northeast 368 423 16,900  Level Washington Center
01:35PM 38.9569 -75.5328 55° Northeast 368 423 17,000  Climbing Washington Center
01:36PM 39.0153 -75.4206 56° Northeast 368 423 16,900 -60 Descending Washington Center
01:37PM 39.0733 -75.3108 56° Northeast 368 423 16,900  Level Washington Center
01:38PM 39.1314 -75.2036 55° Northeast 368 423 16,900  Level Washington Center
01:39PM 39.1872 -75.0936 57° Northeast 368 423 16,900  Level Washington Center
01:40PM 39.2453 -74.9833 56° Northeast 368 423 16,900  Level Washington Center
01:41PM 39.3031 -74.8756 55° Northeast 368 423 17,000  Climbing Washington Center
01:43PM 39.4158 -74.6594 56° Northeast 365 420 16,900 -60 Descending New York Center
01:44PM 39.4736 -74.5469 56° Northeast 360 414 16,900  Level New York Center
01:45PM 39.5314 -74.4369 56° Northeast 360 414 16,900  Level New York Center
01:46PM 39.5908 -74.3294 54° Northeast 366 421 16,900 -300 Level New York Center
01:47PM 39.6500 -74.2353 51° Northeast 366 421 16,400 -1,440 Descending New York Center
01:48PM 39.7339 -74.1506 38° Northeast 354 407 14,100 -2,040 Descending New York Center
01:49PM 39.8067 -74.0756 38° Northeast 339 390 12,300 -1,560 Descending New York Center
01:50PM 39.8756 -74.0058 38° Northeast 318 366 11,000 -660 Descending New York Center
01:51PM 39.9333 -73.9517 36° Northeast 292 336 11,000  Level New York Center
01:52PM 39.9933 -73.8894 38° Northeast 281 323 11,000  Level New York Center
01:53PM 40.0517 -73.8108 46° Northeast 276 318 11,000 -660 Level New York Center
01:54PM 40.0914 -73.7256 59° Northeast 271 312 9,700 -1,320 Descending New York Center
01:55PM 40.1283 -73.6567 55° Northeast 265 305 8,400 -1,680 Descending New York Center
01:55PM 40.1667 -73.6500 North 270 311 7,500 -1,440 Descending New York TRACON
01:57PM 40.2167 -73.7881 295° West 210 242 5,500 -1,260 Descending New York Center
01:58PM 40.2433 -73.8925 289° West 268 308 4,300 -780 Descending New York Center
01:59PM 40.2603 -73.9586 289° West 250 288 4,000 -120 Descending New York Center
02:00PM 40.2811 -74.0358 289° West 214 246 4,100  Climbing New York Center
02:01PM 40.3003 -74.0964 293° West 203 234 4,100 -480 Level New York Center
02:02PM 40.3433 -74.1178 339° North 151 174 3,200 -540 Descending New York Center
02:03PM 40.3775 -74.0894 32° Northeast 136 157 3,100 -180 Descending New York Center
02:03PM 40.4000 -74.0667 38° Northeast 162 186 3,000 -120 Descending New York TRACON
02:04PM 40.4333 -74.0333 37° Northeast 169 194 3,000 -60 Level New York TRACON
02:06PM 40.5167 -73.9833 25° Northeast 164 189 2,900 -420 Descending New York TRACON
02:08PM 40.6000 -73.9167 31° Northeast 176 203 1,500 -600 Descending New York TRACON
02:09PM 40.6333 -73.8833 37° Northeast 160 184 1,100 -420 Descending New York TRACON